This is the latest recevied weather packets stored in our database for station/object WD7CGF. If no packets are shown the sender has not sent any weather packets the latest 1 day(s).
| Time | Temp. | Humidity | Pressure | Rain* | Wind** | Luminosity | Snow |
|---|---|---|---|---|---|---|---|
| 1778009917 | 25.56° C | 39% | 1010.7 hPa | 0 mm | 0.89 m/s, 78° | - | - |
| 1778009310 | 25.56° C | 38% | 1010.7 hPa | 0 mm | 0 m/s | - | - |
| 1778008720 | 25° C | 44% | 1010.7 hPa | 0 mm | 0.45 m/s, 86° | - | - |
| 1778008111 | 25.56° C | 42% | 1010.8 hPa | 0 mm | 0.45 m/s, 72° | - | - |
| 1778007502 | 25° C | 39% | 1011 hPa | 0 mm | 0.45 m/s, 52° | - | - |
| 1778006914 | 25° C | 41% | 1011 hPa | 0 mm | 0.45 m/s, 273° | - | - |
| 1778006309 | 25° C | 42% | 1011.1 hPa | 0 mm | 0 m/s | - | - |
| 1778005701 | 25° C | 43% | 1011.2 hPa | 0 mm | 0.89 m/s, 312° | - | - |
| 1778004506 | 24.44° C | 44% | 1011.1 hPa | 0 mm | 1.34 m/s, 240° | - | - |
| 1778003898 | 24.44° C | 42% | 1011.3 hPa | 0 mm | 0.89 m/s, 246° | - | - |
| 1778003316 | 23.89° C | 42% | 1011.3 hPa | 0 mm | 0.45 m/s, 196° | - | - |
| 1778002706 | 23.89° C | 44% | 1011.3 hPa | 0 mm | 0.89 m/s, 106° | - | - |
| 1778002118 | 23.33° C | 46% | 1011.3 hPa | 0 mm | 0.45 m/s, 233° | - | - |
| 1778001514 | 23.33° C | 47% | 1011.3 hPa | 0 mm | 0 m/s | - | - |
| 1778000902 | 22.22° C | 49% | 1011.4 hPa | 0 mm | 0.89 m/s, 169° | - | - |
| 1778000332 | 22.22° C | 52% | 1011.3 hPa | 0 mm | 0 m/s | - | - |
| 1777999702 | 22.22° C | 52% | 1011.3 hPa | 0 mm | 0.45 m/s, 114° | - | - |
| 1777999113 | 21.11° C | 55% | 1011.5 hPa | 0 mm | 0.89 m/s, 88° | - | - |
| 1777998504 | 21.11° C | 54% | 1011.4 hPa | 0 mm | 0.45 m/s, 254° | - | - |
| 1777997915 | 20.56° C | 56% | 1011.4 hPa | 0 mm | 0 m/s | - | - |
| 1777997304 | 20° C | 59% | 1011.4 hPa | 0 mm | 0.45 m/s, 161° | - | - |
| 1777996715 | 19.44° C | 59% | 1011.4 hPa | 0 mm | 0.89 m/s, 111° | - | - |
| 1777996112 | 18.89° C | 60% | 1011.4 hPa | 0 mm | 0.45 m/s, 82° | - | - |
| 1777995502 | 19.44° C | 59% | 1011.4 hPa | 0 mm | 0.89 m/s, 103° | - | - |
| 1777994911 | 19.44° C | 59% | 1011.3 hPa | 0 mm | 0.45 m/s, 119° | - | - |
* Rain latest hour (hover to see other rain measurements)
** Current wind speed in m/s (hover to see current wind gust speed)